sensor_id;sensor_type;location;lat;lon;timestamp;P1;durP1;ratioP1;P2;durP2;ratioP2
55674;SDS011;41562;44.330;23.802;2022-11-20T00:02:18;1.48;;;1.10;;
55674;SDS011;41562;44.330;23.802;2022-11-20T00:04:46;0.63;;;0.63;;
55674;SDS011;41562;44.330;23.802;2022-11-20T00:07:13;0.13;;;0.13;;
55674;SDS011;41562;44.330;23.802;2022-11-20T00:09:40;2.28;;;1.25;;
55674;SDS011;41562;44.330;23.802;2022-11-20T00:12:07;0.75;;;0.75;;
55674;SDS011;41562;44.330;23.802;2022-11-20T00:14:37;0.57;;;0.57;;
55674;SDS011;41562;44.330;23.802;2022-11-20T00:17:04;1.27;;;1.17;;
55674;SDS011;41562;44.330;23.802;2022-11-20T00:19:32;2.45;;;1.20;;
55674;SDS011;41562;44.330;23.802;2022-11-20T00:21:59;0.40;;;0.32;;
55674;SDS011;41562;44.330;23.802;2022-11-20T00:24:26;1.30;;;1.25;;
55674;SDS011;41562;44.330;23.802;2022-11-20T00:26:53;1.13;;;1.13;;
55674;SDS011;41562;44.330;23.802;2022-11-20T00:29:21;1.27;;;1.25;;
55674;SDS011;41562;44.330;23.802;2022-11-20T00:31:48;0.98;;;0.98;;
55674;SDS011;41562;44.330;23.802;2022-11-20T00:34:15;1.38;;;1.33;;
55674;SDS011;41562;44.330;23.802;2022-11-20T00:36:42;0.75;;;0.75;;
55674;SDS011;41562;44.330;23.802;2022-11-20T00:39:09;2.33;;;2.20;;
55674;SDS011;41562;44.330;23.802;2022-11-20T00:41:39;1.02;;;0.95;;
55674;SDS011;41562;44.330;23.802;2022-11-20T00:44:06;1.10;;;0.77;;
55674;SDS011;41562;44.330;23.802;2022-11-20T00:46:33;0.50;;;0.50;;
55674;SDS011;41562;44.330;23.802;2022-11-20T00:49:00;2.00;;;1.38;;
55674;SDS011;41562;44.330;23.802;2022-11-20T00:51:27;0.73;;;0.73;;
55674;SDS011;41562;44.330;23.802;2022-11-20T00:53:55;2.50;;;1.85;;
55674;SDS011;41562;44.330;23.802;2022-11-20T00:56:26;0.38;;;0.38;;
55674;SDS011;41562;44.330;23.802;2022-11-20T00:58:53;0.88;;;0.45;;
55674;SDS011;41562;44.330;23.802;2022-11-20T01:01:22;0.30;;;0.30;;
55674;SDS011;41562;44.330;23.802;2022-11-20T01:03:52;0.35;;;0.35;;
55674;SDS011;41562;44.330;23.802;2022-11-20T01:06:23;0.28;;;0.28;;
55674;SDS011;41562;44.330;23.802;2022-11-20T01:08:53;2.87;;;2.47;;
55674;SDS011;41562;44.330;23.802;2022-11-20T01:11:25;1.17;;;1.15;;
55674;SDS011;41562;44.330;23.802;2022-11-20T01:13:55;1.95;;;0.77;;
55674;SDS011;41562;44.330;23.802;2022-11-20T01:16:29;0.93;;;0.93;;
55674;SDS011;41562;44.330;23.802;2022-11-20T01:19:01;0.75;;;0.75;;
55674;SDS011;41562;44.330;23.802;2022-11-20T01:21:34;1.52;;;1.45;;
55674;SDS011;41562;44.330;23.802;2022-11-20T01:24:07;1.33;;;1.33;;
55674;SDS011;41562;44.330;23.802;2022-11-20T01:26:37;0.40;;;0.40;;
55674;SDS011;41562;44.330;23.802;2022-11-20T01:29:17;0.95;;;0.95;;
55674;SDS011;41562;44.330;23.802;2022-11-20T01:31:54;0.95;;;0.95;;
55674;SDS011;41562;44.330;23.802;2022-11-20T01:34:22;1.10;;;1.10;;
55674;SDS011;41562;44.330;23.802;2022-11-20T01:36:50;3.83;;;1.63;;
55674;SDS011;41562;44.330;23.802;2022-11-20T01:39:20;0.65;;;0.65;;
55674;SDS011;41562;44.330;23.802;2022-11-20T01:41:49;1.38;;;0.60;;
55674;SDS011;41562;44.330;23.802;2022-11-20T01:44:19;0.10;;;0.10;;
55674;SDS011;41562;44.330;23.802;2022-11-20T01:46:58;0.40;;;0.40;;
55674;SDS011;41562;44.330;23.802;2022-11-20T01:52:00;4.70;;;2.05;;
55674;SDS011;41562;44.330;23.802;2022-11-20T01:54:33;1.48;;;1.20;;
55674;SDS011;41562;44.330;23.802;2022-11-20T01:57:06;0.38;;;0.38;;
55674;SDS011;41562;44.330;23.802;2022-11-20T01:59:38;3.88;;;3.10;;
55674;SDS011;41562;44.330;23.802;2022-11-20T02:02:10;0.35;;;0.35;;
55674;SDS011;41562;44.330;23.802;2022-11-20T02:04:38;0.75;;;0.75;;
55674;SDS011;41562;44.330;23.802;2022-11-20T02:07:05;1.33;;;1.17;;
55674;SDS011;41562;44.330;23.802;2022-11-20T02:09:32;0.30;;;0.30;;
55674;SDS011;41562;44.330;23.802;2022-11-20T02:11:59;0.20;;;0.20;;
55674;SDS011;41562;44.330;23.802;2022-11-20T02:14:27;4.38;;;2.15;;
55674;SDS011;41562;44.330;23.802;2022-11-20T02:16:55;0.55;;;0.55;;
55674;SDS011;41562;44.330;23.802;2022-11-20T02:19:24;1.45;;;1.40;;
55674;SDS011;41562;44.330;23.802;2022-11-20T02:21:56;2.55;;;1.10;;
55674;SDS011;41562;44.330;23.802;2022-11-20T02:24:32;2.90;;;2.70;;
55674;SDS011;41562;44.330;23.802;2022-11-20T02:27:04;1.25;;;1.20;;
55674;SDS011;41562;44.330;23.802;2022-11-20T02:34:57;0.73;;;0.73;;
55674;SDS011;41562;44.330;23.802;2022-11-20T02:37:27;0.82;;;0.82;;
55674;SDS011;41562;44.330;23.802;2022-11-20T02:39:59;0.98;;;0.90;;
55674;SDS011;41562;44.330;23.802;2022-11-20T02:42:27;2.72;;;2.58;;
55674;SDS011;41562;44.330;23.802;2022-11-20T02:44:54;1.05;;;1.05;;
55674;SDS011;41562;44.330;23.802;2022-11-20T02:47:21;0.80;;;0.80;;
55674;SDS011;41562;44.330;23.802;2022-11-20T02:49:49;0.10;;;0.10;;
55674;SDS011;41562;44.330;23.802;2022-11-20T02:52:16;1.25;;;1.15;;
55674;SDS011;41562;44.330;23.802;2022-11-20T02:54:43;0.82;;;0.82;;
55674;SDS011;41562;44.330;23.802;2022-11-20T02:57:10;2.10;;;2.03;;
55674;SDS011;41562;44.330;23.802;2022-11-20T02:59:37;1.05;;;1.00;;
55674;SDS011;41562;44.330;23.802;2022-11-20T03:02:04;0.10;;;0.10;;
55674;SDS011;41562;44.330;23.802;2022-11-20T03:04:32;0.35;;;0.35;;
55674;SDS011;41562;44.330;23.802;2022-11-20T03:06:59;0.55;;;0.55;;
55674;SDS011;41562;44.330;23.802;2022-11-20T03:09:29;1.02;;;1.02;;
55674;SDS011;41562;44.330;23.802;2022-11-20T03:11:56;2.40;;;0.82;;
55674;SDS011;41562;44.330;23.802;2022-11-20T03:14:23;1.25;;;0.98;;
55674;SDS011;41562;44.330;23.802;2022-11-20T03:16:53;1.15;;;1.15;;
55674;SDS011;41562;44.330;23.802;2022-11-20T03:19:23;0.25;;;0.25;;
55674;SDS011;41562;44.330;23.802;2022-11-20T03:21:51;0.98;;;0.98;;
55674;SDS011;41562;44.330;23.802;2022-11-20T03:24:18;0.73;;;0.65;;
55674;SDS011;41562;44.330;23.802;2022-11-20T03:26:52;1.75;;;1.65;;
55674;SDS011;41562;44.330;23.802;2022-11-20T03:29:19;0.75;;;0.75;;
55674;SDS011;41562;44.330;23.802;2022-11-20T03:31:47;1.05;;;1.05;;
55674;SDS011;41562;44.330;23.802;2022-11-20T03:34:14;0.10;;;0.10;;
55674;SDS011;41562;44.330;23.802;2022-11-20T03:36:44;0.20;;;0.20;;
55674;SDS011;41562;44.330;23.802;2022-11-20T03:39:11;0.20;;;0.20;;
55674;SDS011;41562;44.330;23.802;2022-11-20T03:41:39;0.95;;;0.95;;
55674;SDS011;41562;44.330;23.802;2022-11-20T03:44:08;0.43;;;0.43;;
55674;SDS011;41562;44.330;23.802;2022-11-20T03:46:36;0.70;;;0.70;;
55674;SDS011;41562;44.330;23.802;2022-11-20T03:49:04;0.63;;;0.63;;
55674;SDS011;41562;44.330;23.802;2022-11-20T03:51:33;0.38;;;0.38;;
55674;SDS011;41562;44.330;23.802;2022-11-20T03:54:03;1.10;;;1.10;;
55674;SDS011;41562;44.330;23.802;2022-11-20T03:56:36;1.27;;;1.13;;
55674;SDS011;41562;44.330;23.802;2022-11-20T03:59:05;0.60;;;0.45;;
55674;SDS011;41562;44.330;23.802;2022-11-20T04:01:33;1.27;;;1.23;;
55674;SDS011;41562;44.330;23.802;2022-11-20T04:04:02;0.55;;;0.55;;
55674;SDS011;41562;44.330;23.802;2022-11-20T04:06:36;0.85;;;0.85;;
55674;SDS011;41562;44.330;23.802;2022-11-20T04:09:04;0.30;;;0.30;;
55674;SDS011;41562;44.330;23.802;2022-11-20T04:11:33;0.38;;;0.38;;
55674;SDS011;41562;44.330;23.802;2022-11-20T04:14:03;1.00;;;1.00;;
55674;SDS011;41562;44.330;23.802;2022-11-20T04:16:33;0.70;;;0.70;;
55674;SDS011;41562;44.330;23.802;2022-11-20T04:19:02;1.10;;;0.63;;
55674;SDS011;41562;44.330;23.802;2022-11-20T04:21:34;0.38;;;0.38;;
55674;SDS011;41562;44.330;23.802;2022-11-20T04:24:02;0.35;;;0.35;;
55674;SDS011;41562;44.330;23.802;2022-11-20T04:26:29;0.52;;;0.52;;
55674;SDS011;41562;44.330;23.802;2022-11-20T04:28:58;0.32;;;0.32;;
55674;SDS011;41562;44.330;23.802;2022-11-20T04:31:26;0.65;;;0.65;;
55674;SDS011;41562;44.330;23.802;2022-11-20T04:33:55;0.82;;;0.52;;
55674;SDS011;41562;44.330;23.802;2022-11-20T04:36:26;0.17;;;0.17;;
55674;SDS011;41562;44.330;23.802;2022-11-20T04:39:04;0.30;;;0.30;;
55674;SDS011;41562;44.330;23.802;2022-11-20T04:41:33;0.82;;;0.80;;
55674;SDS011;41562;44.330;23.802;2022-11-20T04:44:03;0.82;;;0.82;;
55674;SDS011;41562;44.330;23.802;2022-11-20T04:46:34;0.55;;;0.55;;
55674;SDS011;41562;44.330;23.802;2022-11-20T04:49:06;1.73;;;0.82;;
55674;SDS011;41562;44.330;23.802;2022-11-20T04:51:40;0.43;;;0.43;;
55674;SDS011;41562;44.330;23.802;2022-11-20T04:54:08;0.30;;;0.30;;
55674;SDS011;41562;44.330;23.802;2022-11-20T04:56:36;0.20;;;0.20;;
55674;SDS011;41562;44.330;23.802;2022-11-20T04:59:07;0.63;;;0.63;;
55674;SDS011;41562;44.330;23.802;2022-11-20T05:01:38;3.80;;;1.13;;
55674;SDS011;41562;44.330;23.802;2022-11-20T05:04:06;1.42;;;1.05;;
55674;SDS011;41562;44.330;23.802;2022-11-20T05:06:38;0.10;;;0.10;;
55674;SDS011;41562;44.330;23.802;2022-11-20T05:09:06;3.92;;;0.90;;
55674;SDS011;41562;44.330;23.802;2022-11-20T05:11:53;0.10;;;0.10;;
55674;SDS011;41562;44.330;23.802;2022-11-20T05:14:21;0.13;;;0.13;;
55674;SDS011;41562;44.330;23.802;2022-11-20T05:16:49;0.30;;;0.30;;
55674;SDS011;41562;44.330;23.802;2022-11-20T05:19:16;0.63;;;0.63;;
55674;SDS011;41562;44.330;23.802;2022-11-20T05:21:47;0.10;;;0.10;;
55674;SDS011;41562;44.330;23.802;2022-11-20T05:24:14;0.73;;;0.73;;
55674;SDS011;41562;44.330;23.802;2022-11-20T05:26:42;0.45;;;0.45;;
55674;SDS011;41562;44.330;23.802;2022-11-20T05:29:15;0.90;;;0.83;;
55674;SDS011;41562;44.330;23.802;2022-11-20T05:31:43;0.52;;;0.52;;
55674;SDS011;41562;44.330;23.802;2022-11-20T05:34:17;0.52;;;0.52;;
55674;SDS011;41562;44.330;23.802;2022-11-20T05:36:47;0.10;;;0.10;;
55674;SDS011;41562;44.330;23.802;2022-11-20T05:39:16;0.10;;;0.10;;
55674;SDS011;41562;44.330;23.802;2022-11-20T05:41:47;0.77;;;0.77;;
55674;SDS011;41562;44.330;23.802;2022-11-20T05:44:18;1.58;;;0.88;;
55674;SDS011;41562;44.330;23.802;2022-11-20T05:46:48;0.73;;;0.73;;
55674;SDS011;41562;44.330;23.802;2022-11-20T05:49:18;0.57;;;0.57;;
55674;SDS011;41562;44.330;23.802;2022-11-20T05:51:57;2.92;;;0.80;;
55674;SDS011;41562;44.330;23.802;2022-11-20T05:54:30;0.95;;;0.80;;
55674;SDS011;41562;44.330;23.802;2022-11-20T05:57:00;0.20;;;0.20;;
55674;SDS011;41562;44.330;23.802;2022-11-20T06:01:59;0.10;;;0.10;;
55674;SDS011;41562;44.330;23.802;2022-11-20T06:04:27;0.30;;;0.30;;
55674;SDS011;41562;44.330;23.802;2022-11-20T06:07:04;0.10;;;0.10;;
55674;SDS011;41562;44.330;23.802;2022-11-20T06:09:34;0.65;;;0.65;;
55674;SDS011;41562;44.330;23.802;2022-11-20T06:12:04;0.45;;;0.45;;
55674;SDS011;41562;44.330;23.802;2022-11-20T06:14:32;0.98;;;0.93;;
55674;SDS011;41562;44.330;23.802;2022-11-20T06:19:33;0.10;;;0.10;;
55674;SDS011;41562;44.330;23.802;2022-11-20T06:22:01;0.10;;;0.10;;
55674;SDS011;41562;44.330;23.802;2022-11-20T06:24:31;0.47;;;0.47;;
55674;SDS011;41562;44.330;23.802;2022-11-20T06:26:58;1.17;;;1.17;;
55674;SDS011;41562;44.330;23.802;2022-11-20T06:29:28;0.65;;;0.65;;
55674;SDS011;41562;44.330;23.802;2022-11-20T06:32:00;1.10;;;1.10;;
55674;SDS011;41562;44.330;23.802;2022-11-20T06:34:33;0.85;;;0.85;;
55674;SDS011;41562;44.330;23.802;2022-11-20T06:37:00;1.05;;;1.05;;
55674;SDS011;41562;44.330;23.802;2022-11-20T06:39:28;1.08;;;1.08;;
55674;SDS011;41562;44.330;23.802;2022-11-20T06:42:04;0.50;;;0.50;;
55674;SDS011;41562;44.330;23.802;2022-11-20T06:44:35;0.20;;;0.20;;
55674;SDS011;41562;44.330;23.802;2022-11-20T06:47:04;4.75;;;0.98;;
55674;SDS011;41562;44.330;23.802;2022-11-20T06:49:36;0.50;;;0.50;;
55674;SDS011;41562;44.330;23.802;2022-11-20T06:52:13;0.65;;;0.65;;
55674;SDS011;41562;44.330;23.802;2022-11-20T06:54:46;0.55;;;0.55;;
55674;SDS011;41562;44.330;23.802;2022-11-20T06:57:20;1.17;;;1.08;;
55674;SDS011;41562;44.330;23.802;2022-11-20T06:59:48;0.10;;;0.10;;
55674;SDS011;41562;44.330;23.802;2022-11-20T07:02:15;0.25;;;0.25;;
55674;SDS011;41562;44.330;23.802;2022-11-20T07:04:43;0.10;;;0.10;;
55674;SDS011;41562;44.330;23.802;2022-11-20T07:07:19;0.40;;;0.40;;
55674;SDS011;41562;44.330;23.802;2022-11-20T07:09:53;0.52;;;0.52;;
55674;SDS011;41562;44.330;23.802;2022-11-20T07:12:24;0.43;;;0.43;;
55674;SDS011;41562;44.330;23.802;2022-11-20T07:14:58;0.38;;;0.38;;
55674;SDS011;41562;44.330;23.802;2022-11-20T07:17:25;1.20;;;1.10;;
55674;SDS011;41562;44.330;23.802;2022-11-20T07:19:56;0.82;;;0.82;;
55674;SDS011;41562;44.330;23.802;2022-11-20T07:22:33;0.20;;;0.20;;
55674;SDS011;41562;44.330;23.802;2022-11-20T07:25:06;0.20;;;0.20;;
55674;SDS011;41562;44.330;23.802;2022-11-20T07:27:37;0.63;;;0.40;;
55674;SDS011;41562;44.330;23.802;2022-11-20T07:30:16;0.47;;;0.47;;
55674;SDS011;41562;44.330;23.802;2022-11-20T07:33:01;0.20;;;0.20;;
55674;SDS011;41562;44.330;23.802;2022-11-20T07:35:31;0.10;;;0.10;;
55674;SDS011;41562;44.330;23.802;2022-11-20T07:38:11;1.50;;;1.40;;
55674;SDS011;41562;44.330;23.802;2022-11-20T07:40:44;0.10;;;0.10;;
55674;SDS011;41562;44.330;23.802;2022-11-20T07:43:12;0.30;;;0.30;;
55674;SDS011;41562;44.330;23.802;2022-11-20T07:45:41;0.43;;;0.43;;
55674;SDS011;41562;44.330;23.802;2022-11-20T07:48:20;0.50;;;0.50;;
55674;SDS011;41562;44.330;23.802;2022-11-20T07:50:57;0.35;;;0.35;;
55674;SDS011;41562;44.330;23.802;2022-11-20T07:53:25;0.47;;;0.47;;
55674;SDS011;41562;44.330;23.802;2022-11-20T07:55:53;0.17;;;0.17;;
55674;SDS011;41562;44.330;23.802;2022-11-20T07:58:30;0.55;;;0.55;;
55674;SDS011;41562;44.330;23.802;2022-11-20T08:01:03;0.20;;;0.20;;
55674;SDS011;41562;44.330;23.802;2022-11-20T08:06:10;0.25;;;0.25;;
55674;SDS011;41562;44.330;23.802;2022-11-20T08:08:41;0.52;;;0.52;;
55674;SDS011;41562;44.330;23.802;2022-11-20T08:11:09;1.05;;;0.88;;
55674;SDS011;41562;44.330;23.802;2022-11-20T08:13:36;0.35;;;0.35;;
55674;SDS011;41562;44.330;23.802;2022-11-20T08:16:04;0.20;;;0.20;;
55674;SDS011;41562;44.330;23.802;2022-11-20T08:18:31;0.10;;;0.10;;
55674;SDS011;41562;44.330;23.802;2022-11-20T08:21:03;1.30;;;1.20;;
55674;SDS011;41562;44.330;23.802;2022-11-20T08:23:34;0.10;;;0.10;;
55674;SDS011;41562;44.330;23.802;2022-11-20T08:26:02;1.08;;;0.82;;
55674;SDS011;41562;44.330;23.802;2022-11-20T08:28:36;0.10;;;0.10;;
55674;SDS011;41562;44.330;23.802;2022-11-20T08:31:06;1.35;;;0.52;;
55674;SDS011;41562;44.330;23.802;2022-11-20T08:33:45;0.20;;;0.20;;
55674;SDS011;41562;44.330;23.802;2022-11-20T08:36:18;0.10;;;0.10;;
55674;SDS011;41562;44.330;23.802;2022-11-20T08:38:56;0.40;;;0.40;;
55674;SDS011;41562;44.330;23.802;2022-11-20T08:41:31;0.10;;;0.10;;
55674;SDS011;41562;44.330;23.802;2022-11-20T08:43:59;0.73;;;0.73;;
55674;SDS011;41562;44.330;23.802;2022-11-20T08:46:31;0.45;;;0.45;;
55674;SDS011;41562;44.330;23.802;2022-11-20T08:49:04;3.60;;;1.60;;
55674;SDS011;41562;44.330;23.802;2022-11-20T08:51:32;0.70;;;0.70;;
55674;SDS011;41562;44.330;23.802;2022-11-20T08:54:02;0.10;;;0.10;;
55674;SDS011;41562;44.330;23.802;2022-11-20T08:56:33;0.40;;;0.40;;
55674;SDS011;41562;44.330;23.802;2022-11-20T08:59:02;0.40;;;0.40;;
55674;SDS011;41562;44.330;23.802;2022-11-20T09:01:49;0.40;;;0.40;;
55674;SDS011;41562;44.330;23.802;2022-11-20T09:04:25;1.02;;;0.60;;
55674;SDS011;41562;44.330;23.802;2022-11-20T09:06:58;1.13;;;1.13;;
55674;SDS011;41562;44.330;23.802;2022-11-20T09:09:29;0.90;;;0.90;;
55674;SDS011;41562;44.330;23.802;2022-11-20T09:14:46;0.70;;;0.70;;
55674;SDS011;41562;44.330;23.802;2022-11-20T09:17:23;0.30;;;0.30;;
55674;SDS011;41562;44.330;23.802;2022-11-20T09:19:55;0.20;;;0.20;;
55674;SDS011;41562;44.330;23.802;2022-11-20T09:22:39;0.15;;;0.15;;
55674;SDS011;41562;44.330;23.802;2022-11-20T09:25:13;0.25;;;0.25;;
55674;SDS011;41562;44.330;23.802;2022-11-20T09:28:00;0.60;;;0.47;;
55674;SDS011;41562;44.330;23.802;2022-11-20T09:30:33;1.02;;;1.02;;
55674;SDS011;41562;44.330;23.802;2022-11-20T09:33:03;0.20;;;0.20;;
55674;SDS011;41562;44.330;23.802;2022-11-20T09:35:33;2.28;;;0.75;;
55674;SDS011;41562;44.330;23.802;2022-11-20T09:38:09;3.15;;;0.55;;
55674;SDS011;41562;44.330;23.802;2022-11-20T09:40:38;0.90;;;0.90;;
55674;SDS011;41562;44.330;23.802;2022-11-20T09:49:43;1.90;;;1.55;;
55674;SDS011;41562;44.330;23.802;2022-11-20T09:55:09;22.63;;;0.75;;
55674;SDS011;41562;44.330;23.802;2022-11-20T09:57:44;1.13;;;1.13;;
55674;SDS011;41562;44.330;23.802;2022-11-20T10:00:18;1.83;;;1.38;;
55674;SDS011;41562;44.330;23.802;2022-11-20T10:03:01;0.13;;;0.13;;
55674;SDS011;41562;44.330;23.802;2022-11-20T10:05:42;0.40;;;0.40;;
55674;SDS011;41562;44.330;23.802;2022-11-20T10:11:05;0.22;;;0.22;;
55674;SDS011;41562;44.330;23.802;2022-11-20T10:17:10;0.17;;;0.17;;
55674;SDS011;41562;44.330;23.802;2022-11-20T10:25:26;0.90;;;0.70;;
55674;SDS011;41562;44.330;23.802;2022-11-20T10:33:36;3.72;;;1.40;;
55674;SDS011;41562;44.330;23.802;2022-11-20T10:36:38;2.85;;;2.65;;
55674;SDS011;41562;44.330;23.802;2022-11-20T10:39:16;46.03;;;32.70;;
55674;SDS011;41562;44.330;23.802;2022-11-20T10:42:02;52.42;;;39.92;;
55674;SDS011;41562;44.330;23.802;2022-11-20T10:44:46;42.60;;;19.88;;
55674;SDS011;41562;44.330;23.802;2022-11-20T10:47:24;2.00;;;0.50;;
55674;SDS011;41562;44.330;23.802;2022-11-20T10:49:53;0.30;;;0.30;;
55674;SDS011;41562;44.330;23.802;2022-11-20T11:00:49;0.15;;;0.15;;
55674;SDS011;41562;44.330;23.802;2022-11-20T11:03:20;1.15;;;0.95;;
55674;SDS011;41562;44.330;23.802;2022-11-20T11:08:51;0.10;;;0.10;;
55674;SDS011;41562;44.330;23.802;2022-11-20T11:11:26;0.13;;;0.13;;
55674;SDS011;41562;44.330;23.802;2022-11-20T11:14:09;0.10;;;0.10;;
55674;SDS011;41562;44.330;23.802;2022-11-20T11:16:49;0.13;;;0.13;;
55674;SDS011;41562;44.330;23.802;2022-11-20T11:19:24;0.60;;;0.60;;
55674;SDS011;41562;44.330;23.802;2022-11-20T11:21:53;0.47;;;0.47;;
55674;SDS011;41562;44.330;23.802;2022-11-20T11:24:24;2.63;;;0.57;;
55674;SDS011;41562;44.330;23.802;2022-11-20T11:27:13;0.38;;;0.38;;
55674;SDS011;41562;44.330;23.802;2022-11-20T11:29:44;0.70;;;0.70;;
55674;SDS011;41562;44.330;23.802;2022-11-20T11:32:19;0.40;;;0.40;;
55674;SDS011;41562;44.330;23.802;2022-11-20T11:35:00;2.30;;;2.20;;
55674;SDS011;41562;44.330;23.802;2022-11-20T11:37:45;0.10;;;0.10;;
55674;SDS011;41562;44.330;23.802;2022-11-20T11:40:14;1.45;;;1.00;;
55674;SDS011;41562;44.330;23.802;2022-11-20T11:43:17;0.20;;;0.20;;
55674;SDS011;41562;44.330;23.802;2022-11-20T11:46:02;1.45;;;1.35;;
55674;SDS011;41562;44.330;23.802;2022-11-20T11:48:40;0.30;;;0.30;;
55674;SDS011;41562;44.330;23.802;2022-11-20T11:51:12;0.63;;;0.60;;
55674;SDS011;41562;44.330;23.802;2022-11-20T11:53:47;1.52;;;1.42;;
55674;SDS011;41562;44.330;23.802;2022-11-20T11:56:15;0.10;;;0.10;;
55674;SDS011;41562;44.330;23.802;2022-11-20T11:58:44;0.50;;;0.50;;
55674;SDS011;41562;44.330;23.802;2022-11-20T12:07:04;0.50;;;0.50;;
55674;SDS011;41562;44.330;23.802;2022-11-20T12:10:05;0.20;;;0.20;;
55674;SDS011;41562;44.330;23.802;2022-11-20T12:12:41;0.43;;;0.43;;
55674;SDS011;41562;44.330;23.802;2022-11-20T12:15:22;0.40;;;0.40;;
55674;SDS011;41562;44.330;23.802;2022-11-20T12:17:52;0.63;;;0.63;;
55674;SDS011;41562;44.330;23.802;2022-11-20T12:20:21;1.60;;;0.68;;
55674;SDS011;41562;44.330;23.802;2022-11-20T12:23:01;0.15;;;0.15;;
55674;SDS011;41562;44.330;23.802;2022-11-20T12:25:36;0.47;;;0.47;;
55674;SDS011;41562;44.330;23.802;2022-11-20T12:28:13;0.50;;;0.50;;
55674;SDS011;41562;44.330;23.802;2022-11-20T12:36:56;0.47;;;0.47;;
55674;SDS011;41562;44.330;23.802;2022-11-20T12:39:34;0.22;;;0.22;;
55674;SDS011;41562;44.330;23.802;2022-11-20T12:42:07;0.50;;;0.50;;
55674;SDS011;41562;44.330;23.802;2022-11-20T13:02:26;0.75;;;0.75;;
55674;SDS011;41562;44.330;23.802;2022-11-20T13:07:34;0.20;;;0.20;;
55674;SDS011;41562;44.330;23.802;2022-11-20T13:10:02;0.10;;;0.10;;
55674;SDS011;41562;44.330;23.802;2022-11-20T13:12:45;1.20;;;1.15;;
55674;SDS011;41562;44.330;23.802;2022-11-20T13:18:11;0.30;;;0.30;;
55674;SDS011;41562;44.330;23.802;2022-11-20T13:20:42;0.10;;;0.10;;
55674;SDS011;41562;44.330;23.802;2022-11-20T13:23:26;0.10;;;0.10;;
55674;SDS011;41562;44.330;23.802;2022-11-20T13:26:14;0.28;;;0.28;;
55674;SDS011;41562;44.330;23.802;2022-11-20T13:28:45;0.95;;;0.95;;
55674;SDS011;41562;44.330;23.802;2022-11-20T13:31:25;0.20;;;0.20;;
55674;SDS011;41562;44.330;23.802;2022-11-20T13:33:57;0.30;;;0.30;;
55674;SDS011;41562;44.330;23.802;2022-11-20T13:36:27;0.22;;;0.17;;
55674;SDS011;41562;44.330;23.802;2022-11-20T13:38:58;1.35;;;0.85;;
55674;SDS011;41562;44.330;23.802;2022-11-20T13:41:31;0.43;;;0.43;;
55674;SDS011;41562;44.330;23.802;2022-11-20T13:46:36;0.50;;;0.50;;
55674;SDS011;41562;44.330;23.802;2022-11-20T13:49:23;0.20;;;0.20;;
55674;SDS011;41562;44.330;23.802;2022-11-20T13:51:59;1.38;;;0.68;;
55674;SDS011;41562;44.330;23.802;2022-11-20T13:57:48;0.28;;;0.28;;
55674;SDS011;41562;44.330;23.802;2022-11-20T14:00:24;0.55;;;0.55;;
55674;SDS011;41562;44.330;23.802;2022-11-20T14:05:37;0.75;;;0.75;;
55674;SDS011;41562;44.330;23.802;2022-11-20T14:08:11;0.20;;;0.20;;
55674;SDS011;41562;44.330;23.802;2022-11-20T14:11:01;0.40;;;0.40;;
55674;SDS011;41562;44.330;23.802;2022-11-20T14:13:30;0.70;;;0.70;;
55674;SDS011;41562;44.330;23.802;2022-11-20T14:15:57;0.50;;;0.50;;
55674;SDS011;41562;44.330;23.802;2022-11-20T14:18:25;0.10;;;0.10;;
55674;SDS011;41562;44.330;23.802;2022-11-20T14:20:53;2.28;;;0.90;;
55674;SDS011;41562;44.330;23.802;2022-11-20T14:23:25;0.22;;;0.22;;
55674;SDS011;41562;44.330;23.802;2022-11-20T14:25:56;1.25;;;0.95;;
55674;SDS011;41562;44.330;23.802;2022-11-20T14:28:26;1.10;;;0.85;;
55674;SDS011;41562;44.330;23.802;2022-11-20T14:30:54;0.52;;;0.52;;
55674;SDS011;41562;44.330;23.802;2022-11-20T14:33:23;0.50;;;0.50;;
55674;SDS011;41562;44.330;23.802;2022-11-20T14:35:56;0.30;;;0.30;;
55674;SDS011;41562;44.330;23.802;2022-11-20T14:38:26;0.55;;;0.55;;
55674;SDS011;41562;44.330;23.802;2022-11-20T14:41:05;0.77;;;0.77;;
55674;SDS011;41562;44.330;23.802;2022-11-20T14:43:34;1.67;;;1.55;;
55674;SDS011;41562;44.330;23.802;2022-11-20T14:46:05;0.32;;;0.32;;
55674;SDS011;41562;44.330;23.802;2022-11-20T14:48:49;0.40;;;0.40;;
55674;SDS011;41562;44.330;23.802;2022-11-20T14:54:15;2.17;;;0.73;;
55674;SDS011;41562;44.330;23.802;2022-11-20T14:56:55;0.95;;;0.95;;
55674;SDS011;41562;44.330;23.802;2022-11-20T14:59:26;1.52;;;1.50;;
55674;SDS011;41562;44.330;23.802;2022-11-20T15:02:06;1.58;;;1.48;;
55674;SDS011;41562;44.330;23.802;2022-11-20T15:04:46;0.80;;;0.65;;
55674;SDS011;41562;44.330;23.802;2022-11-20T15:07:26;0.60;;;0.60;;
55674;SDS011;41562;44.330;23.802;2022-11-20T15:09:59;1.25;;;0.98;;
55674;SDS011;41562;44.330;23.802;2022-11-20T15:12:39;0.73;;;0.73;;
55674;SDS011;41562;44.330;23.802;2022-11-20T15:15:15;1.27;;;1.27;;
55674;SDS011;41562;44.330;23.802;2022-11-20T15:17:47;0.63;;;0.63;;
55674;SDS011;41562;44.330;23.802;2022-11-20T15:20:15;0.25;;;0.25;;
55674;SDS011;41562;44.330;23.802;2022-11-20T15:22:43;1.02;;;1.00;;
55674;SDS011;41562;44.330;23.802;2022-11-20T15:25:11;0.50;;;0.50;;
55674;SDS011;41562;44.330;23.802;2022-11-20T15:27:43;2.72;;;2.10;;
55674;SDS011;41562;44.330;23.802;2022-11-20T15:30:16;0.68;;;0.68;;
55674;SDS011;41562;44.330;23.802;2022-11-20T15:32:47;2.35;;;2.05;;
55674;SDS011;41562;44.330;23.802;2022-11-20T15:35:15;0.20;;;0.20;;
55674;SDS011;41562;44.330;23.802;2022-11-20T15:37:42;0.40;;;0.40;;
55674;SDS011;41562;44.330;23.802;2022-11-20T15:40:10;0.47;;;0.47;;
55674;SDS011;41562;44.330;23.802;2022-11-20T15:42:38;0.40;;;0.38;;
55674;SDS011;41562;44.330;23.802;2022-11-20T15:45:05;0.10;;;0.10;;
55674;SDS011;41562;44.330;23.802;2022-11-20T15:47:33;0.30;;;0.30;;
55674;SDS011;41562;44.330;23.802;2022-11-20T15:50:02;1.58;;;1.50;;
55674;SDS011;41562;44.330;23.802;2022-11-20T15:52:30;0.03;;;0.03;;
55674;SDS011;41562;44.330;23.802;2022-11-20T15:55:09;2.47;;;0.93;;
55674;SDS011;41562;44.330;23.802;2022-11-20T15:57:37;0.63;;;0.63;;
55674;SDS011;41562;44.330;23.802;2022-11-20T16:00:04;0.50;;;0.50;;
55674;SDS011;41562;44.330;23.802;2022-11-20T16:02:32;0.68;;;0.68;;
55674;SDS011;41562;44.330;23.802;2022-11-20T16:04:59;0.25;;;0.25;;
55674;SDS011;41562;44.330;23.802;2022-11-20T16:07:26;0.40;;;0.40;;
55674;SDS011;41562;44.330;23.802;2022-11-20T16:09:53;0.80;;;0.80;;
55674;SDS011;41562;44.330;23.802;2022-11-20T16:12:20;0.85;;;0.85;;
55674;SDS011;41562;44.330;23.802;2022-11-20T16:14:48;2.42;;;2.28;;
55674;SDS011;41562;44.330;23.802;2022-11-20T16:17:15;0.70;;;0.65;;
55674;SDS011;41562;44.330;23.802;2022-11-20T16:19:42;0.50;;;0.50;;
55674;SDS011;41562;44.330;23.802;2022-11-20T16:22:10;0.10;;;0.10;;
55674;SDS011;41562;44.330;23.802;2022-11-20T16:24:37;2.05;;;1.63;;
55674;SDS011;41562;44.330;23.802;2022-11-20T16:27:04;0.17;;;0.17;;
55674;SDS011;41562;44.330;23.802;2022-11-20T16:29:32;0.70;;;0.70;;
55674;SDS011;41562;44.330;23.802;2022-11-20T16:31:59;0.45;;;0.45;;
55674;SDS011;41562;44.330;23.802;2022-11-20T16:34:26;0.57;;;0.57;;
55674;SDS011;41562;44.330;23.802;2022-11-20T16:36:53;0.20;;;0.20;;
55674;SDS011;41562;44.330;23.802;2022-11-20T16:39:20;0.75;;;0.75;;
55674;SDS011;41562;44.330;23.802;2022-11-20T16:41:50;0.65;;;0.65;;
55674;SDS011;41562;44.330;23.802;2022-11-20T16:44:17;1.02;;;1.02;;